sensor_id;sensor_type;location;lat;lon;timestamp;temperature;humidity
27978;DHT22;15314;49.248;6.968;2022-12-07T00:00:18;5.50;99.90
27978;DHT22;15314;49.248;6.968;2022-12-07T00:01:39;5.50;99.90
27978;DHT22;15314;49.248;6.968;2022-12-07T00:02:40;5.50;99.90
27978;DHT22;15314;49.248;6.968;2022-12-07T00:03:43;5.50;99.90
27978;DHT22;15314;49.248;6.968;2022-12-07T00:04:44;5.50;99.90
27978;DHT22;15314;49.248;6.968;2022-12-07T00:05:44;5.40;99.90
27978;DHT22;15314;49.248;6.968;2022-12-07T00:06:46;5.50;99.90
27978;DHT22;15314;49.248;6.968;2022-12-07T00:07:50;5.50;99.90
27978;DHT22;15314;49.248;6.968;2022-12-07T00:08:50;5.50;99.90
27978;DHT22;15314;49.248;6.968;2022-12-07T00:09:51;5.50;99.90
27978;DHT22;15314;49.248;6.968;2022-12-07T00:10:51;5.50;99.90
27978;DHT22;15314;49.248;6.968;2022-12-07T00:11:52;5.60;99.90
27978;DHT22;15314;49.248;6.968;2022-12-07T00:12:53;5.60;99.90
27978;DHT22;15314;49.248;6.968;2022-12-07T00:13:58;5.60;99.90
27978;DHT22;15314;49.248;6.968;2022-12-07T00:14:58;5.60;99.90
27978;DHT22;15314;49.248;6.968;2022-12-07T00:16:04;5.60;99.90
27978;DHT22;15314;49.248;6.968;2022-12-07T00:17:05;5.60;99.90
27978;DHT22;15314;49.248;6.968;2022-12-07T00:18:06;5.60;99.90
27978;DHT22;15314;49.248;6.968;2022-12-07T00:19:07;5.60;99.90
27978;DHT22;15314;49.248;6.968;2022-12-07T00:20:09;5.70;99.90
27978;DHT22;15314;49.248;6.968;2022-12-07T00:21:15;5.60;99.90
27978;DHT22;15314;49.248;6.968;2022-12-07T00:22:16;5.60;99.90
27978;DHT22;15314;49.248;6.968;2022-12-07T00:23:16;5.60;99.90
27978;DHT22;15314;49.248;6.968;2022-12-07T00:24:17;5.60;99.90
27978;DHT22;15314;49.248;6.968;2022-12-07T00:25:17;5.60;99.90
27978;DHT22;15314;49.248;6.968;2022-12-07T00:26:23;5.50;99.90
27978;DHT22;15314;49.248;6.968;2022-12-07T00:27:24;5.50;99.90
27978;DHT22;15314;49.248;6.968;2022-12-07T00:28:25;5.50;99.90
27978;DHT22;15314;49.248;6.968;2022-12-07T00:29:25;5.50;99.90
27978;DHT22;15314;49.248;6.968;2022-12-07T00:30:26;5.50;99.90
27978;DHT22;15314;49.248;6.968;2022-12-07T00:31:30;5.60;99.90
27978;DHT22;15314;49.248;6.968;2022-12-07T00:32:31;5.60;99.90
27978;DHT22;15314;49.248;6.968;2022-12-07T00:33:33;5.60;99.90
27978;DHT22;15314;49.248;6.968;2022-12-07T00:34:34;5.70;99.90
27978;DHT22;15314;49.248;6.968;2022-12-07T00:35:34;5.60;99.90
27978;DHT22;15314;49.248;6.968;2022-12-07T00:36:35;5.60;99.90
27978;DHT22;15314;49.248;6.968;2022-12-07T00:37:36;5.60;99.90
27978;DHT22;15314;49.248;6.968;2022-12-07T00:38:38;5.60;99.90
27978;DHT22;15314;49.248;6.968;2022-12-07T00:39:39;5.60;99.90
27978;DHT22;15314;49.248;6.968;2022-12-07T00:40:39;5.50;99.90
27978;DHT22;15314;49.248;6.968;2022-12-07T00:41:40;5.50;99.90
27978;DHT22;15314;49.248;6.968;2022-12-07T00:42:40;5.50;99.90
27978;DHT22;15314;49.248;6.968;2022-12-07T00:43:44;5.50;99.90
27978;DHT22;15314;49.248;6.968;2022-12-07T00:44:44;5.50;99.90
27978;DHT22;15314;49.248;6.968;2022-12-07T00:45:45;5.50;99.90
27978;DHT22;15314;49.248;6.968;2022-12-07T00:46:46;5.50;99.90
27978;DHT22;15314;49.248;6.968;2022-12-07T00:47:46;5.60;99.90
27978;DHT22;15314;49.248;6.968;2022-12-07T00:48:48;5.50;99.90
27978;DHT22;15314;49.248;6.968;2022-12-07T00:49:49;5.50;99.90
27978;DHT22;15314;49.248;6.968;2022-12-07T00:50:49;5.50;99.90
27978;DHT22;15314;49.248;6.968;2022-12-07T00:51:50;5.50;99.90
27978;DHT22;15314;49.248;6.968;2022-12-07T00:52:50;5.50;99.90
27978;DHT22;15314;49.248;6.968;2022-12-07T00:53:51;5.50;99.90
27978;DHT22;15314;49.248;6.968;2022-12-07T00:54:52;5.50;99.90
27978;DHT22;15314;49.248;6.968;2022-12-07T00:55:53;5.50;99.90
27978;DHT22;15314;49.248;6.968;2022-12-07T00:56:54;5.50;99.90
27978;DHT22;15314;49.248;6.968;2022-12-07T00:57:54;5.50;99.90
27978;DHT22;15314;49.248;6.968;2022-12-07T00:59:56;5.50;99.90
27978;DHT22;15314;49.248;6.968;2022-12-07T01:01:00;5.50;99.90
27978;DHT22;15314;49.248;6.968;2022-12-07T01:02:02;5.50;99.90
27978;DHT22;15314;49.248;6.968;2022-12-07T01:03:03;5.50;99.90
27978;DHT22;15314;49.248;6.968;2022-12-07T01:04:04;5.50;99.90
27978;DHT22;15314;49.248;6.968;2022-12-07T01:05:06;5.50;99.90
27978;DHT22;15314;49.248;6.968;2022-12-07T01:06:06;5.50;99.90
27978;DHT22;15314;49.248;6.968;2022-12-07T01:07:07;5.50;99.90
27978;DHT22;15314;49.248;6.968;2022-12-07T01:08:08;5.50;99.90
27978;DHT22;15314;49.248;6.968;2022-12-07T01:09:09;5.50;99.90
27978;DHT22;15314;49.248;6.968;2022-12-07T01:10:09;5.50;99.90
27978;DHT22;15314;49.248;6.968;2022-12-07T01:11:14;5.50;99.90
27978;DHT22;15314;49.248;6.968;2022-12-07T01:12:14;5.40;99.90
27978;DHT22;15314;49.248;6.968;2022-12-07T01:13:15;5.50;99.90
27978;DHT22;15314;49.248;6.968;2022-12-07T01:14:16;5.50;99.90
27978;DHT22;15314;49.248;6.968;2022-12-07T01:15:17;5.40;99.90
27978;DHT22;15314;49.248;6.968;2022-12-07T01:16:18;5.40;99.90
27978;DHT22;15314;49.248;6.968;2022-12-07T01:17:18;5.40;99.90
27978;DHT22;15314;49.248;6.968;2022-12-07T01:18:19;5.40;99.90
27978;DHT22;15314;49.248;6.968;2022-12-07T01:19:20;5.40;99.90
27978;DHT22;15314;49.248;6.968;2022-12-07T01:20:20;5.40;99.90
27978;DHT22;15314;49.248;6.968;2022-12-07T01:21:23;5.40;99.90
27978;DHT22;15314;49.248;6.968;2022-12-07T01:22:24;5.40;99.90
27978;DHT22;15314;49.248;6.968;2022-12-07T01:23:25;5.40;99.90
27978;DHT22;15314;49.248;6.968;2022-12-07T01:24:25;5.40;99.90
27978;DHT22;15314;49.248;6.968;2022-12-07T01:25:26;5.40;99.90
27978;DHT22;15314;49.248;6.968;2022-12-07T01:26:27;5.40;99.90
27978;DHT22;15314;49.248;6.968;2022-12-07T01:27:28;5.40;99.90
27978;DHT22;15314;49.248;6.968;2022-12-07T01:28:28;5.40;99.90
27978;DHT22;15314;49.248;6.968;2022-12-07T01:29:29;5.40;99.90
27978;DHT22;15314;49.248;6.968;2022-12-07T01:30:29;5.30;99.90
27978;DHT22;15314;49.248;6.968;2022-12-07T01:31:30;5.30;99.90
27978;DHT22;15314;49.248;6.968;2022-12-07T01:32:31;5.30;99.90
27978;DHT22;15314;49.248;6.968;2022-12-07T01:33:34;5.30;99.90
27978;DHT22;15314;49.248;6.968;2022-12-07T01:34:35;5.30;99.90
27978;DHT22;15314;49.248;6.968;2022-12-07T01:35:36;5.20;99.90
27978;DHT22;15314;49.248;6.968;2022-12-07T01:36:36;5.30;99.90
27978;DHT22;15314;49.248;6.968;2022-12-07T01:37:38;5.10;99.90
27978;DHT22;15314;49.248;6.968;2022-12-07T01:38:39;5.10;99.90
27978;DHT22;15314;49.248;6.968;2022-12-07T01:39:40;5.10;99.90
27978;DHT22;15314;49.248;6.968;2022-12-07T01:40:41;5.20;99.90
27978;DHT22;15314;49.248;6.968;2022-12-07T01:41:42;5.20;99.90
27978;DHT22;15314;49.248;6.968;2022-12-07T01:42:43;5.20;99.90
27978;DHT22;15314;49.248;6.968;2022-12-07T01:44:16;5.20;99.90
27978;DHT22;15314;49.248;6.968;2022-12-07T01:46:18;5.20;99.90
27978;DHT22;15314;49.248;6.968;2022-12-07T01:47:19;5.20;99.90
27978;DHT22;15314;49.248;6.968;2022-12-07T01:48:40;5.10;99.90
27978;DHT22;15314;49.248;6.968;2022-12-07T01:49:44;5.10;99.90
27978;DHT22;15314;49.248;6.968;2022-12-07T01:50:48;5.10;99.90
27978;DHT22;15314;49.248;6.968;2022-12-07T01:51:54;5.10;99.90
27978;DHT22;15314;49.248;6.968;2022-12-07T01:52:57;5.00;99.90
27978;DHT22;15314;49.248;6.968;2022-12-07T01:53:58;5.00;99.90
27978;DHT22;15314;49.248;6.968;2022-12-07T01:55:03;5.00;99.90
27978;DHT22;15314;49.248;6.968;2022-12-07T01:56:05;5.00;99.90
27978;DHT22;15314;49.248;6.968;2022-12-07T01:57:08;5.10;99.90
27978;DHT22;15314;49.248;6.968;2022-12-07T01:58:09;5.10;99.90
27978;DHT22;15314;49.248;6.968;2022-12-07T01:59:11;5.10;99.90
27978;DHT22;15314;49.248;6.968;2022-12-07T02:00:12;5.10;99.90
27978;DHT22;15314;49.248;6.968;2022-12-07T02:03:41;5.10;99.90
27978;DHT22;15314;49.248;6.968;2022-12-07T02:04:42;5.00;99.90
27978;DHT22;15314;49.248;6.968;2022-12-07T02:05:43;5.00;99.90
27978;DHT22;15314;49.248;6.968;2022-12-07T02:06:44;5.00;99.90
27978;DHT22;15314;49.248;6.968;2022-12-07T02:07:47;5.20;99.90
27978;DHT22;15314;49.248;6.968;2022-12-07T02:08:48;5.10;99.90
27978;DHT22;15314;49.248;6.968;2022-12-07T02:09:49;5.10;99.90
27978;DHT22;15314;49.248;6.968;2022-12-07T02:10:50;5.10;99.90
27978;DHT22;15314;49.248;6.968;2022-12-07T02:11:51;5.10;99.90
27978;DHT22;15314;49.248;6.968;2022-12-07T02:13:06;5.10;99.90
27978;DHT22;15314;49.248;6.968;2022-12-07T02:14:08;5.10;99.90
27978;DHT22;15314;49.248;6.968;2022-12-07T02:15:09;5.10;99.90
27978;DHT22;15314;49.248;6.968;2022-12-07T02:19:14;5.10;99.90
27978;DHT22;15314;49.248;6.968;2022-12-07T02:20:37;5.10;99.90
27978;DHT22;15314;49.248;6.968;2022-12-07T02:21:59;5.10;99.90
27978;DHT22;15314;49.248;6.968;2022-12-07T02:23:21;5.10;99.90
27978;DHT22;15314;49.248;6.968;2022-12-07T02:26:17;5.20;99.90
27978;DHT22;15314;49.248;6.968;2022-12-07T02:29:19;5.30;99.90
27978;DHT22;15314;49.248;6.968;2022-12-07T02:30:20;5.20;99.90
27978;DHT22;15314;49.248;6.968;2022-12-07T02:31:23;5.30;99.90
27978;DHT22;15314;49.248;6.968;2022-12-07T02:33:50;5.20;99.90
27978;DHT22;15314;49.248;6.968;2022-12-07T02:35:05;5.20;99.90
27978;DHT22;15314;49.248;6.968;2022-12-07T02:36:10;5.20;99.90
27978;DHT22;15314;49.248;6.968;2022-12-07T02:37:29;5.10;99.90
27978;DHT22;15314;49.248;6.968;2022-12-07T02:39:53;5.10;99.90
27978;DHT22;15314;49.248;6.968;2022-12-07T02:42:12;5.10;99.90
27978;DHT22;15314;49.248;6.968;2022-12-07T02:43:18;5.10;99.90
27978;DHT22;15314;49.248;6.968;2022-12-07T02:44:24;5.10;99.90
27978;DHT22;15314;49.248;6.968;2022-12-07T02:45:27;5.00;99.90
27978;DHT22;15314;49.248;6.968;2022-12-07T02:46:37;5.00;99.90
27978;DHT22;15314;49.248;6.968;2022-12-07T02:47:39;5.00;99.90
27978;DHT22;15314;49.248;6.968;2022-12-07T02:48:41;5.00;99.90
27978;DHT22;15314;49.248;6.968;2022-12-07T02:49:43;5.00;99.90
27978;DHT22;15314;49.248;6.968;2022-12-07T02:50:47;5.00;99.90
27978;DHT22;15314;49.248;6.968;2022-12-07T02:51:48;5.00;99.90
27978;DHT22;15314;49.248;6.968;2022-12-07T02:52:49;5.10;99.90
27978;DHT22;15314;49.248;6.968;2022-12-07T02:53:49;5.10;99.90
27978;DHT22;15314;49.248;6.968;2022-12-07T02:54:50;5.10;99.90
27978;DHT22;15314;49.248;6.968;2022-12-07T02:55:51;5.10;99.90
27978;DHT22;15314;49.248;6.968;2022-12-07T02:56:53;5.20;99.90
27978;DHT22;15314;49.248;6.968;2022-12-07T02:59:36;5.20;99.90
27978;DHT22;15314;49.248;6.968;2022-12-07T03:01:00;5.20;99.90
27978;DHT22;15314;49.248;6.968;2022-12-07T03:03:14;5.10;99.90
27978;DHT22;15314;49.248;6.968;2022-12-07T03:06:56;5.10;99.90
27978;DHT22;15314;49.248;6.968;2022-12-07T03:08:29;5.10;99.90
27978;DHT22;15314;49.248;6.968;2022-12-07T03:09:37;5.10;99.90
27978;DHT22;15314;49.248;6.968;2022-12-07T03:11:02;5.10;99.90
27978;DHT22;15314;49.248;6.968;2022-12-07T03:12:12;5.10;99.90
27978;DHT22;15314;49.248;6.968;2022-12-07T03:14:33;5.20;99.90
27978;DHT22;15314;49.248;6.968;2022-12-07T03:15:49;5.20;99.90
27978;DHT22;15314;49.248;6.968;2022-12-07T03:17:04;5.20;99.90
27978;DHT22;15314;49.248;6.968;2022-12-07T03:18:07;5.40;99.90
27978;DHT22;15314;49.248;6.968;2022-12-07T03:19:17;5.30;99.90
27978;DHT22;15314;49.248;6.968;2022-12-07T03:20:20;5.30;99.90
27978;DHT22;15314;49.248;6.968;2022-12-07T03:21:32;5.20;99.90
27978;DHT22;15314;49.248;6.968;2022-12-07T03:22:35;5.20;99.90
27978;DHT22;15314;49.248;6.968;2022-12-07T03:23:39;5.10;99.90
27978;DHT22;15314;49.248;6.968;2022-12-07T03:24:48;5.10;99.90
27978;DHT22;15314;49.248;6.968;2022-12-07T03:25:53;5.20;99.90
27978;DHT22;15314;49.248;6.968;2022-12-07T03:27:04;5.20;99.90
27978;DHT22;15314;49.248;6.968;2022-12-07T03:28:06;5.20;99.90
27978;DHT22;15314;49.248;6.968;2022-12-07T03:29:17;5.30;99.90
27978;DHT22;15314;49.248;6.968;2022-12-07T03:30:21;5.30;99.90
27978;DHT22;15314;49.248;6.968;2022-12-07T03:31:26;5.40;99.90
27978;DHT22;15314;49.248;6.968;2022-12-07T03:32:37;5.30;99.90
27978;DHT22;15314;49.248;6.968;2022-12-07T03:33:49;5.30;99.90
27978;DHT22;15314;49.248;6.968;2022-12-07T03:35:09;5.40;99.90
27978;DHT22;15314;49.248;6.968;2022-12-07T03:36:29;5.40;99.90
27978;DHT22;15314;49.248;6.968;2022-12-07T03:37:35;5.40;99.90
27978;DHT22;15314;49.248;6.968;2022-12-07T03:40:33;5.50;99.90
27978;DHT22;15314;49.248;6.968;2022-12-07T03:41:28;5.30;99.90
27978;DHT22;15314;49.248;6.968;2022-12-07T03:42:31;5.30;99.90
27978;DHT22;15314;49.248;6.968;2022-12-07T03:43:33;5.30;99.90
27978;DHT22;15314;49.248;6.968;2022-12-07T03:44:34;5.30;99.90
27978;DHT22;15314;49.248;6.968;2022-12-07T03:45:42;5.30;99.90
27978;DHT22;15314;49.248;6.968;2022-12-07T03:46:45;5.30;99.90
27978;DHT22;15314;49.248;6.968;2022-12-07T03:48:01;5.20;99.90
27978;DHT22;15314;49.248;6.968;2022-12-07T03:50:43;5.30;99.90
27978;DHT22;15314;49.248;6.968;2022-12-07T03:53:00;5.20;99.90
27978;DHT22;15314;49.248;6.968;2022-12-07T03:54:27;5.10;99.90
27978;DHT22;15314;49.248;6.968;2022-12-07T03:55:32;5.20;99.90
27978;DHT22;15314;49.248;6.968;2022-12-07T03:56:35;5.20;99.90
27978;DHT22;15314;49.248;6.968;2022-12-07T03:57:36;5.20;99.90
27978;DHT22;15314;49.248;6.968;2022-12-07T03:58:38;5.20;99.90
27978;DHT22;15314;49.248;6.968;2022-12-07T03:59:40;5.20;99.90
27978;DHT22;15314;49.248;6.968;2022-12-07T04:00:43;5.30;99.90
27978;DHT22;15314;49.248;6.968;2022-12-07T04:01:53;5.20;99.90
27978;DHT22;15314;49.248;6.968;2022-12-07T04:02:55;5.20;99.90
27978;DHT22;15314;49.248;6.968;2022-12-07T04:03:55;5.20;99.90
27978;DHT22;15314;49.248;6.968;2022-12-07T04:04:56;5.20;99.90
27978;DHT22;15314;49.248;6.968;2022-12-07T04:05:57;5.30;99.90
27978;DHT22;15314;49.248;6.968;2022-12-07T04:06:59;5.30;99.90
27978;DHT22;15314;49.248;6.968;2022-12-07T04:08:00;5.30;99.90
27978;DHT22;15314;49.248;6.968;2022-12-07T04:09:00;5.30;99.90
27978;DHT22;15314;49.248;6.968;2022-12-07T04:10:01;5.10;99.90
27978;DHT22;15314;49.248;6.968;2022-12-07T04:11:02;5.10;99.90
27978;DHT22;15314;49.248;6.968;2022-12-07T04:12:03;5.10;99.90
27978;DHT22;15314;49.248;6.968;2022-12-07T04:13:04;5.10;99.90
27978;DHT22;15314;49.248;6.968;2022-12-07T04:14:05;5.00;99.90
27978;DHT22;15314;49.248;6.968;2022-12-07T04:15:20;5.10;99.90
27978;DHT22;15314;49.248;6.968;2022-12-07T04:16:21;5.10;99.90
27978;DHT22;15314;49.248;6.968;2022-12-07T04:17:22;5.00;99.90
27978;DHT22;15314;49.248;6.968;2022-12-07T04:18:22;5.00;99.90
27978;DHT22;15314;49.248;6.968;2022-12-07T04:19:29;5.00;99.90
27978;DHT22;15314;49.248;6.968;2022-12-07T04:20:30;5.00;99.90
27978;DHT22;15314;49.248;6.968;2022-12-07T04:21:30;5.00;99.90
27978;DHT22;15314;49.248;6.968;2022-12-07T04:22:31;5.00;99.90
27978;DHT22;15314;49.248;6.968;2022-12-07T04:23:32;5.00;99.90
27978;DHT22;15314;49.248;6.968;2022-12-07T04:24:33;5.00;99.90
27978;DHT22;15314;49.248;6.968;2022-12-07T04:25:34;4.90;99.90
27978;DHT22;15314;49.248;6.968;2022-12-07T04:26:35;4.90;99.90
27978;DHT22;15314;49.248;6.968;2022-12-07T04:27:35;4.90;99.90
27978;DHT22;15314;49.248;6.968;2022-12-07T04:28:36;4.90;99.90
27978;DHT22;15314;49.248;6.968;2022-12-07T04:29:37;4.90;99.90
27978;DHT22;15314;49.248;6.968;2022-12-07T04:30:37;4.90;99.90
27978;DHT22;15314;49.248;6.968;2022-12-07T04:31:38;4.90;99.90
27978;DHT22;15314;49.248;6.968;2022-12-07T04:32:39;4.90;99.90
27978;DHT22;15314;49.248;6.968;2022-12-07T04:33:39;4.90;99.90
27978;DHT22;15314;49.248;6.968;2022-12-07T04:34:40;4.90;99.90
27978;DHT22;15314;49.248;6.968;2022-12-07T04:35:42;4.80;99.90
27978;DHT22;15314;49.248;6.968;2022-12-07T04:36:44;4.80;99.90
27978;DHT22;15314;49.248;6.968;2022-12-07T04:37:45;4.80;99.90
27978;DHT22;15314;49.248;6.968;2022-12-07T04:38:46;4.80;99.90
27978;DHT22;15314;49.248;6.968;2022-12-07T04:39:46;4.80;99.90
27978;DHT22;15314;49.248;6.968;2022-12-07T04:40:47;4.90;99.90
27978;DHT22;15314;49.248;6.968;2022-12-07T04:41:48;4.80;99.90
27978;DHT22;15314;49.248;6.968;2022-12-07T04:42:49;4.80;99.90
27978;DHT22;15314;49.248;6.968;2022-12-07T04:43:49;4.80;99.90
27978;DHT22;15314;49.248;6.968;2022-12-07T04:44:50;4.90;99.90
27978;DHT22;15314;49.248;6.968;2022-12-07T04:45:51;4.80;99.90
27978;DHT22;15314;49.248;6.968;2022-12-07T04:46:52;4.70;99.90
27978;DHT22;15314;49.248;6.968;2022-12-07T04:47:53;4.70;99.90
27978;DHT22;15314;49.248;6.968;2022-12-07T04:48:54;4.70;99.90
27978;DHT22;15314;49.248;6.968;2022-12-07T04:49:55;4.80;99.90
27978;DHT22;15314;49.248;6.968;2022-12-07T04:50:56;4.70;99.90
27978;DHT22;15314;49.248;6.968;2022-12-07T04:51:57;4.70;99.90
27978;DHT22;15314;49.248;6.968;2022-12-07T04:52:57;4.70;99.90
27978;DHT22;15314;49.248;6.968;2022-12-07T04:53:58;4.70;99.90
27978;DHT22;15314;49.248;6.968;2022-12-07T04:54:59;4.80;99.90
27978;DHT22;15314;49.248;6.968;2022-12-07T04:55:59;4.80;99.90
27978;DHT22;15314;49.248;6.968;2022-12-07T04:57:01;4.80;99.90
27978;DHT22;15314;49.248;6.968;2022-12-07T04:58:02;4.80;99.90
27978;DHT22;15314;49.248;6.968;2022-12-07T04:59:04;4.80;99.90
27978;DHT22;15314;49.248;6.968;2022-12-07T05:00:05;4.90;99.90
27978;DHT22;15314;49.248;6.968;2022-12-07T05:01:06;4.90;99.90
27978;DHT22;15314;49.248;6.968;2022-12-07T05:02:07;4.80;99.90
27978;DHT22;15314;49.248;6.968;2022-12-07T05:03:07;4.90;99.90
27978;DHT22;15314;49.248;6.968;2022-12-07T05:04:09;4.90;99.90
27978;DHT22;15314;49.248;6.968;2022-12-07T05:05:10;4.80;99.90
27978;DHT22;15314;49.248;6.968;2022-12-07T05:06:11;4.80;99.90
27978;DHT22;15314;49.248;6.968;2022-12-07T05:07:12;4.80;99.90
27978;DHT22;15314;49.248;6.968;2022-12-07T05:08:12;4.80;99.90
27978;DHT22;15314;49.248;6.968;2022-12-07T05:09:13;4.80;99.90
27978;DHT22;15314;49.248;6.968;2022-12-07T05:10:13;4.90;99.90
27978;DHT22;15314;49.248;6.968;2022-12-07T05:11:14;4.90;99.90
27978;DHT22;15314;49.248;6.968;2022-12-07T05:12:35;4.90;99.90
27978;DHT22;15314;49.248;6.968;2022-12-07T05:13:36;4.90;99.90
27978;DHT22;15314;49.248;6.968;2022-12-07T05:14:36;5.00;99.90
27978;DHT22;15314;49.248;6.968;2022-12-07T05:15:37;4.90;99.90
27978;DHT22;15314;49.248;6.968;2022-12-07T05:16:38;4.90;99.90
27978;DHT22;15314;49.248;6.968;2022-12-07T05:17:39;5.00;99.90
27978;DHT22;15314;49.248;6.968;2022-12-07T05:18:40;4.90;99.90
27978;DHT22;15314;49.248;6.968;2022-12-07T05:19:41;5.00;99.90
27978;DHT22;15314;49.248;6.968;2022-12-07T05:20:42;5.00;99.90
27978;DHT22;15314;49.248;6.968;2022-12-07T05:21:43;5.00;99.90
27978;DHT22;15314;49.248;6.968;2022-12-07T05:22:43;5.00;99.90
27978;DHT22;15314;49.248;6.968;2022-12-07T05:23:44;5.00;99.90
27978;DHT22;15314;49.248;6.968;2022-12-07T05:24:45;5.00;99.90
27978;DHT22;15314;49.248;6.968;2022-12-07T05:25:46;4.90;99.90
27978;DHT22;15314;49.248;6.968;2022-12-07T05:26:47;5.10;99.90
27978;DHT22;15314;49.248;6.968;2022-12-07T05:27:47;4.90;99.90
27978;DHT22;15314;49.248;6.968;2022-12-07T05:28:52;4.90;99.90
27978;DHT22;15314;49.248;6.968;2022-12-07T05:29:53;4.90;99.90
27978;DHT22;15314;49.248;6.968;2022-12-07T05:30:53;4.90;99.90
27978;DHT22;15314;49.248;6.968;2022-12-07T05:31:54;5.00;99.90
27978;DHT22;15314;49.248;6.968;2022-12-07T05:32:55;5.00;99.90
27978;DHT22;15314;49.248;6.968;2022-12-07T05:33:55;5.00;99.90
27978;DHT22;15314;49.248;6.968;2022-12-07T05:34:56;5.00;99.90
27978;DHT22;15314;49.248;6.968;2022-12-07T05:35:57;5.00;99.90
27978;DHT22;15314;49.248;6.968;2022-12-07T05:36:57;5.00;99.90
27978;DHT22;15314;49.248;6.968;2022-12-07T05:37:58;5.00;99.90
27978;DHT22;15314;49.248;6.968;2022-12-07T05:38:58;5.10;99.90
27978;DHT22;15314;49.248;6.968;2022-12-07T05:39:59;5.00;99.90
27978;DHT22;15314;49.248;6.968;2022-12-07T05:41:04;5.00;99.90
27978;DHT22;15314;49.248;6.968;2022-12-07T05:42:05;5.10;99.90
27978;DHT22;15314;49.248;6.968;2022-12-07T05:43:15;5.10;99.90
27978;DHT22;15314;49.248;6.968;2022-12-07T05:44:15;5.10;99.90
27978;DHT22;15314;49.248;6.968;2022-12-07T05:45:16;5.00;99.90
27978;DHT22;15314;49.248;6.968;2022-12-07T05:46:17;5.10;99.90
27978;DHT22;15314;49.248;6.968;2022-12-07T05:47:17;5.10;99.90
27978;DHT22;15314;49.248;6.968;2022-12-07T05:48:18;5.10;99.90
27978;DHT22;15314;49.248;6.968;2022-12-07T05:49:19;5.20;99.90
27978;DHT22;15314;49.248;6.968;2022-12-07T05:50:19;5.10;99.90
27978;DHT22;15314;49.248;6.968;2022-12-07T05:51:20;5.20;99.90
27978;DHT22;15314;49.248;6.968;2022-12-07T05:52:22;5.10;99.90
27978;DHT22;15314;49.248;6.968;2022-12-07T05:53:22;5.20;99.90
27978;DHT22;15314;49.248;6.968;2022-12-07T05:54:23;5.20;99.90
27978;DHT22;15314;49.248;6.968;2022-12-07T05:55:24;5.20;99.90
27978;DHT22;15314;49.248;6.968;2022-12-07T05:56:24;5.20;99.90
27978;DHT22;15314;49.248;6.968;2022-12-07T05:57:26;5.20;99.90
27978;DHT22;15314;49.248;6.968;2022-12-07T05:58:27;5.20;99.90
27978;DHT22;15314;49.248;6.968;2022-12-07T05:59:47;5.20;99.90
27978;DHT22;15314;49.248;6.968;2022-12-07T06:00:47;5.20;99.90
27978;DHT22;15314;49.248;6.968;2022-12-07T06:01:56;5.20;99.90
27978;DHT22;15314;49.248;6.968;2022-12-07T06:02:57;5.10;99.90
27978;DHT22;15314;49.248;6.968;2022-12-07T06:03:58;5.10;99.90
27978;DHT22;15314;49.248;6.968;2022-12-07T06:04:58;5.10;99.90
27978;DHT22;15314;49.248;6.968;2022-12-07T06:05:59;5.20;99.90
27978;DHT22;15314;49.248;6.968;2022-12-07T06:06:59;5.20;99.90
27978;DHT22;15314;49.248;6.968;2022-12-07T06:08:00;5.20;99.90
27978;DHT22;15314;49.248;6.968;2022-12-07T06:09:01;5.20;99.90
27978;DHT22;15314;49.248;6.968;2022-12-07T06:10:01;5.20;99.90
27978;DHT22;15314;49.248;6.968;2022-12-07T06:11:02;5.20;99.90
27978;DHT22;15314;49.248;6.968;2022-12-07T06:12:21;5.20;99.90
27978;DHT22;15314;49.248;6.968;2022-12-07T06:13:42;5.20;99.90
27978;DHT22;15314;49.248;6.968;2022-12-07T06:14:43;5.30;99.90
27978;DHT22;15314;49.248;6.968;2022-12-07T06:15:44;5.50;99.90
27978;DHT22;15314;49.248;6.968;2022-12-07T06:16:45;5.40;99.90
27978;DHT22;15314;49.248;6.968;2022-12-07T06:17:45;5.40;99.90
27978;DHT22;15314;49.248;6.968;2022-12-07T06:18:47;5.40;99.90
27978;DHT22;15314;49.248;6.968;2022-12-07T06:19:48;5.40;99.90
27978;DHT22;15314;49.248;6.968;2022-12-07T06:20:49;5.40;99.90
27978;DHT22;15314;49.248;6.968;2022-12-07T06:21:49;5.40;99.90
27978;DHT22;15314;49.248;6.968;2022-12-07T06:22:50;5.30;99.90
27978;DHT22;15314;49.248;6.968;2022-12-07T06:23:50;5.20;99.90
27978;DHT22;15314;49.248;6.968;2022-12-07T06:24:51;5.20;99.90
27978;DHT22;15314;49.248;6.968;2022-12-07T06:25:51;5.10;99.90
27978;DHT22;15314;49.248;6.968;2022-12-07T06:26:52;5.10;99.90
27978;DHT22;15314;49.248;6.968;2022-12-07T06:27:53;5.10;99.90
27978;DHT22;15314;49.248;6.968;2022-12-07T06:28:55;5.00;99.90
27978;DHT22;15314;49.248;6.968;2022-12-07T06:29:56;5.30;99.90
27978;DHT22;15314;49.248;6.968;2022-12-07T06:31:00;5.10;99.90
27978;DHT22;15314;49.248;6.968;2022-12-07T06:32:01;5.20;99.90
27978;DHT22;15314;49.248;6.968;2022-12-07T06:33:02;5.20;99.90
27978;DHT22;15314;49.248;6.968;2022-12-07T06:34:05;5.20;99.90
27978;DHT22;15314;49.248;6.968;2022-12-07T06:35:07;5.30;99.90
27978;DHT22;15314;49.248;6.968;2022-12-07T06:36:08;5.30;99.90
27978;DHT22;15314;49.248;6.968;2022-12-07T06:37:09;5.30;99.90
27978;DHT22;15314;49.248;6.968;2022-12-07T06:38:09;5.30;99.90
27978;DHT22;15314;49.248;6.968;2022-12-07T06:39:10;5.30;99.90
27978;DHT22;15314;49.248;6.968;2022-12-07T06:40:11;5.30;99.90
27978;DHT22;15314;49.248;6.968;2022-12-07T06:41:12;5.30;99.90
27978;DHT22;15314;49.248;6.968;2022-12-07T06:42:12;5.30;99.90
27978;DHT22;15314;49.248;6.968;2022-12-07T06:43:13;5.30;99.90
27978;DHT22;15314;49.248;6.968;2022-12-07T06:44:14;5.40;99.90
27978;DHT22;15314;49.248;6.968;2022-12-07T06:45:14;5.40;99.90
27978;DHT22;15314;49.248;6.968;2022-12-07T06:46:16;5.40;99.90
27978;DHT22;15314;49.248;6.968;2022-12-07T06:47:16;5.40;99.90
27978;DHT22;15314;49.248;6.968;2022-12-07T06:48:17;5.40;99.90
27978;DHT22;15314;49.248;6.968;2022-12-07T06:49:18;5.30;99.90
27978;DHT22;15314;49.248;6.968;2022-12-07T06:50:18;5.30;99.90
27978;DHT22;15314;49.248;6.968;2022-12-07T06:51:19;5.30;99.90
27978;DHT22;15314;49.248;6.968;2022-12-07T06:52:19;5.30;99.90
27978;DHT22;15314;49.248;6.968;2022-12-07T06:53:20;5.40;99.90
27978;DHT22;15314;49.248;6.968;2022-12-07T06:54:21;5.40;99.90
27978;DHT22;15314;49.248;6.968;2022-12-07T06:55:22;5.40;99.90
27978;DHT22;15314;49.248;6.968;2022-12-07T06:56:22;5.50;99.90
27978;DHT22;15314;49.248;6.968;2022-12-07T06:57:23;5.40;99.90
27978;DHT22;15314;49.248;6.968;2022-12-07T06:58:23;5.40;99.90
27978;DHT22;15314;49.248;6.968;2022-12-07T06:59:24;5.40;99.90
27978;DHT22;15314;49.248;6.968;2022-12-07T07:00:25;5.50;99.90
27978;DHT22;15314;49.248;6.968;2022-12-07T07:01:25;5.40;99.90
27978;DHT22;15314;49.248;6.968;2022-12-07T07:02:26;5.40;99.90
27978;DHT22;15314;49.248;6.968;2022-12-07T07:03:26;5.40;99.90
27978;DHT22;15314;49.248;6.968;2022-12-07T07:04:27;5.40;99.90
27978;DHT22;15314;49.248;6.968;2022-12-07T07:05:27;5.40;99.90
27978;DHT22;15314;49.248;6.968;2022-12-07T07:06:28;5.40;99.90
27978;DHT22;15314;49.248;6.968;2022-12-07T07:07:29;5.40;99.90
27978;DHT22;15314;49.248;6.968;2022-12-07T07:08:29;5.60;99.90
27978;DHT22;15314;49.248;6.968;2022-12-07T07:09:31;5.50;99.90